UUBW 181600Z 05005MPS 8000 -RA FEW010 BKN026 06/06 Q1005 R30/290050 NOSIG RMK QFE744
QNH:(hPa/inHg/mmHg)1005 / 29.68 / 754
QFE:(hPa/inHg/mmHg)956 / 28.23 / 717
Temperature6
Dew Point6
Visibility8000
WeatherLight Rain
Cloud CoverFEW (1000);
BKN (2600);
Transition Altitude10000 ft.
Transition LevelFL120
SQUAWK